M I D A S
Marine Information and Data Acquisition System
Tripno 1817 of the Zeeleeuw from 2009-09-30 06:58:40 to 2009-09-30 13:44:59
Back to CruiseResearch ActivitiesStationsMapUnderway DataData graphs

EquipmentUnitsComment
TimeDGPSUTC
LatitudeDGPSDM.mWGS84
LongitudeDGPSDM.mWGS84
HeadingGyrodeg 
SOGDGPSknotsSpeed over ground
COGDGPSdegCourse over ground
DepthEcho soundermeters200 kHz
Missing or incorrect values are displayed as -999
Navigation data collected by the RV Zeeleeuw from 2009-09-30 06:32:28 to 2009-09-30 16:21:44
Time Latitude Longitude Heading SOG COG Depth
2009-09-30 06:33:34 51°13.662 2°55.96 126.9 -999 217 7.8
2009-09-30 06:34:34 51°13.663 2°55.96 126.9 -999 178 7.8
2009-09-30 06:35:34 51°13.663 2°55.96 126.7 0.1 199 7.9
2009-09-30 06:36:34 51°13.663 2°55.96 126.7 -999 12 7.9
2009-09-30 06:37:34 51°13.658 2°55.96 126.9 -999 2 7.9
2009-09-30 06:38:34 51°13.666 2°55.96 126.7 0.1 354 7.9
2009-09-30 06:39:34 51°13.66 2°55.96 126.8 0.1 212 7.9
2009-09-30 06:40:34 51°13.66 2°55.96 126.9 0.1 227 7.9
2009-09-30 06:41:34 51°13.662 2°55.96 126.9 0.1 185 7.9
2009-09-30 06:42:34 51°13.662 2°55.96 126.7 0.1 190 8
2009-09-30 06:43:34 51°13.662 2°55.96 126.8 -999 196 8
2009-09-30 06:44:34 51°13.662 2°55.96 126.9 -999 187 7.9
2009-09-30 06:45:34 51°13.662 2°55.959 127.1 -999 350 8
2009-09-30 06:46:34 51°13.663 2°55.959 127.1 -999 249 8
2009-09-30 06:47:34 51°13.663 2°55.958 127.1 -999 158 8
2009-09-30 06:48:34 51°13.663 2°55.958 127 0.1 24 8
2009-09-30 06:49:34 51°13.663 2°55.958 126.7 -999 255 8
2009-09-30 06:50:34 51°13.662 2°55.958 126.5 0.1 201 8
2009-09-30 06:51:34 51°13.662 2°55.959 126.6 -999 -999 8
2009-09-30 06:52:34 51°13.662 2°55.959 126.4 -999 217 8
2009-09-30 06:53:34 51°13.662 2°55.959 126.6 -999 281 8
2009-09-30 06:54:34 51°13.662 2°55.959 126.7 0.1 201 8.1
2009-09-30 06:55:34 51°13.664 2°55.959 126.8 -999 10 8
2009-09-30 06:56:34 51°13.664 2°55.959 126.6 -999 193 8
2009-09-30 06:57:33 51°13.664 2°55.959 127 0.1 112 8.1
2009-09-30 06:58:34 51°13.663 2°55.96 130.4 -999 23 8.2
2009-09-30 06:59:34 51°13.662 2°55.961 122.4 -999 57 8.2
2009-09-30 07:00:34 51°13.665 2°55.946 116.1 1.7 295 6.8
2009-09-30 07:01:37 51°13.684 2°55.879 108.4 3 290 -999
2009-09-30 07:02:38 51°13.692 2°55.804 89.2 2.4 273 -999
2009-09-30 07:03:36 51°13.696 2°55.775 59.4 1.8 41 13.3
2009-09-30 07:04:34 51°13.701 2°55.784 10.8 0.6 177 13
2009-09-30 07:05:36 51°13.727 2°55.763 319.8 2.7 320 13
2009-09-30 07:06:34 51°13.776 2°55.695 323.5 4.8 322 11.5
2009-09-30 07:07:34 51°13.853 2°55.619 335 6 333 11.7
2009-09-30 07:08:34 51°13.947 2°55.546 336.8 6.5 335 12
2009-09-30 07:09:34 51°14.051 2°55.469 339.1 7.1 336 11.5
2009-09-30 07:10:34 51°14.158 2°55.385 332.3 7.1 330 11.9
2009-09-30 07:11:34 51°14.25 2°55.259 315.3 7.8 313 11.9
2009-09-30 07:12:34 51°14.342 2°55.088 311.6 8.9 311 11.4
2009-09-30 07:13:34 51°14.449 2°54.906 314.8 10.2 314 11.1
2009-09-30 07:14:34 51°14.579 2°54.703 319.1 11.2 314 10.7
2009-09-30 07:15:34 51°14.709 2°54.49 317.7 11.2 314 10.7
2009-09-30 07:16:34 51°14.847 2°54.294 323.9 11 321 10.5
2009-09-30 07:17:34 51°14.994 2°54.122 329.2 10.9 325 9.8
2009-09-30 07:18:34 51°15.134 2°53.938 317.1 11 311 10.2
2009-09-30 07:19:34 51°15.193 2°53.668 280.6 11.2 275 10.7
2009-09-30 07:20:34 51°15.2 2°53.366 273.9 11.4 271 10.7
2009-09-30 07:21:34 51°15.206 2°53.063 276.7 11.4 274 10.9
2009-09-30 07:22:34 51°15.224 2°52.761 279.8 11.4 275 12
2009-09-30 07:23:35 51°15.246 2°52.456 280.4 11.5 277 11.6
2009-09-30 07:24:49 51°15.273 2°52.083 279.9 11.5 276 12.2
2009-09-30 07:25:49 51°15.294 2°51.78 279.9 11.5 276 12.8
2009-09-30 07:26:49 51°15.318 2°51.477 280.2 11.6 277 13.3
2009-09-30 07:27:49 51°15.34 2°51.174 279.9 11.4 278 13.4
2009-09-30 07:28:49 51°15.362 2°50.879 279.8 11.2 277 13.7
2009-09-30 07:29:49 51°15.389 2°50.584 281 11.2 278 13.8
2009-09-30 07:30:49 51°15.384 2°50.285 268.6 11.3 265 13.9
2009-09-30 07:31:49 51°15.369 2°49.985 269.2 11.3 267 13.8
2009-09-30 07:32:49 51°15.349 2°49.687 267.7 11.2 265 13.5
2009-09-30 07:33:49 51°15.335 2°49.389 269.3 11.2 266 13.9
2009-09-30 07:34:49 51°15.323 2°49.094 269.2 11.1 268 14.2
2009-09-30 07:35:49 51°15.311 2°48.8 268.5 11.2 267 14
2009-09-30 07:36:49 51°15.301 2°48.505 269.3 11.2 267 13.3
2009-09-30 07:37:49 51°15.293 2°48.21 270.7 11.1 268 11.7
2009-09-30 07:38:49 51°15.283 2°47.915 269 11.1 266 10.8
2009-09-30 07:39:49 51°15.268 2°47.622 268.6 11.1 266 11
2009-09-30 07:40:49 51°15.255 2°47.33 267.9 11.1 266 11.2
2009-09-30 07:41:49 51°15.244 2°47.036 269.1 11.1 266 11.8
2009-09-30 07:42:49 51°15.234 2°46.743 268.3 11 264 12.9
2009-09-30 07:43:49 51°15.227 2°46.449 269.7 11.1 266 13.8
2009-09-30 07:44:49 51°15.218 2°46.156 268.8 11.1 267 15.1
2009-09-30 07:45:49 51°15.21 2°45.862 269.6 11 268 15.9
2009-09-30 07:46:49 51°15.186 2°45.573 260.3 11.1 258 16.9
2009-09-30 07:47:49 51°15.157 2°45.283 262.8 11 259 17.6
2009-09-30 07:48:49 51°15.131 2°44.994 263.6 11.1 261 18.1
2009-09-30 07:49:49 51°15.106 2°44.704 264.6 11.1 262 18.6
2009-09-30 07:50:49 51°15.081 2°44.415 264.1 11 263 19.3
2009-09-30 07:51:49 51°15.057 2°44.126 265.2 11 263 19.6
2009-09-30 07:52:49 51°15.032 2°43.835 264.5 10.9 262 19.1
2009-09-30 07:53:49 51°15.006 2°43.546 264 11 261 17.5
2009-09-30 07:54:49 51°14.98 2°43.258 264.3 11 263 16.4
2009-09-30 07:55:49 51°14.925 2°42.991 241.5 10.6 241 15.5
2009-09-30 07:56:49 51°14.79 2°42.793 220 11.2 216 16.6
2009-09-30 07:57:49 51°14.642 2°42.613 219 11.3 218 18.1
2009-09-30 07:58:49 51°14.49 2°42.435 218.9 11.2 218 18.6
2009-09-30 07:59:49 51°14.339 2°42.261 217.8 11.3 217 18.6
2009-09-30 08:00:49 51°14.189 2°42.088 217.5 11.3 215 18.6
2009-09-30 08:01:49 51°14.045 2°41.906 219.6 11.1 219 18.3
2009-09-30 08:02:49 51°13.904 2°41.715 223.1 11 218 18.1
2009-09-30 08:03:49 51°13.768 2°41.513 224.6 11.2 221 17.8
2009-09-30 08:04:49 51°13.632 2°41.312 223.1 11.2 224 17.2
2009-09-30 08:05:49 51°13.494 2°41.117 222.8 11.1 221 16.2
2009-09-30 08:06:49 51°13.354 2°40.922 222.3 11.2 220 15.5
2009-09-30 08:07:49 51°13.216 2°40.728 222.2 11.2 221 15.3
2009-09-30 08:08:49 51°13.079 2°40.532 223.9 10.9 222 15.1
2009-09-30 08:09:49 51°12.942 2°40.34 223.8 11 223 14.9
2009-09-30 08:10:49 51°12.809 2°40.143 223.9 10.9 222 14.8
2009-09-30 08:11:49 51°12.68 2°39.942 227.2 10.9 226 14.6
2009-09-30 08:12:49 51°12.557 2°39.732 228.4 10.9 228 14.3
2009-09-30 08:13:49 51°12.436 2°39.52 230.1 10.8 229 14.2
2009-09-30 08:14:49 51°12.32 2°39.303 231.1 10.7 228 14.2
2009-09-30 08:15:49 51°12.207 2°39.082 232.5 10.9 227 14.3
2009-09-30 08:16:49 51°12.094 2°38.86 231.3 10.9 231 14.4
2009-09-30 08:17:49 51°11.979 2°38.644 230 10.8 228 14.5
2009-09-30 08:18:49 51°11.865 2°38.427 231.6 10.7 229 14.5
2009-09-30 08:19:49 51°11.75 2°38.209 231.9 10.8 231 14.5
2009-09-30 08:20:49 51°11.636 2°37.987 233.3 10.7 233 14.9
2009-09-30 08:21:49 51°11.524 2°37.767 232.3 10.7 233 15.2
2009-09-30 08:22:49 51°11.407 2°37.551 230.2 10.7 228 14.9
2009-09-30 08:23:49 51°11.293 2°37.334 230.9 10.6 230 14.7
2009-09-30 08:24:49 51°11.177 2°37.119 228.1 10.6 226 14.6
2009-09-30 08:25:49 51°11.052 2°36.917 225.9 10.7 227 14.4
2009-09-30 08:26:49 51°10.925 2°36.72 224.9 10.7 223 13.5
2009-09-30 08:27:49 51°10.8 2°36.521 226 10.6 226 13.3
2009-09-30 08:28:49 51°10.672 2°36.329 220.7 10.4 215 12.8
2009-09-30 08:29:49 51°10.518 2°36.194 208.3 10.7 205 12.4
2009-09-30 08:30:49 51°10.356 2°36.079 205.7 10.6 203 12.5
2009-09-30 08:31:49 51°10.192 2°35.974 200.4 10.8 197 14.5
2009-09-30 08:32:49 51°10.013 2°35.924 192.2 11.2 190 19.4
2009-09-30 08:33:49 51°9.834 2°35.883 190.4 10.7 187 19.9
2009-09-30 08:34:49 51°9.655 2°35.847 191.1 10.8 188 19.3
2009-09-30 08:35:49 51°9.478 2°35.804 193.3 10.9 190 19.1
2009-09-30 08:36:49 51°9.309 2°35.761 192.6 8.2 189 18
2009-09-30 08:37:49 51°9.227 2°35.799 143.1 4.2 131 18.3
2009-09-30 08:38:49 51°9.198 2°35.881 124.8 3.1 112 18
2009-09-30 08:39:49 51°9.18 2°35.962 123.3 3.8 111 18.2
2009-09-30 08:40:49 51°9.146 2°36.048 147.6 3.8 135 17.9
2009-09-30 08:41:49 51°9.095 2°36.093 179.7 3.4 163 17.2
2009-09-30 08:42:49 51°9.04 2°36.106 189.8 3.3 176 16.1
2009-09-30 08:43:49 51°8.986 2°36.102 208.8 3 196 15
2009-09-30 08:44:49 51°8.953 2°36.059 238.8 2.6 232 14.3
2009-09-30 08:45:49 51°8.924 2°36.006 229 2.7 226 14
2009-09-30 08:46:49 51°8.892 2°35.956 236.7 2.6 234 13.8
2009-09-30 08:47:49 51°8.868 2°35.898 241 2.6 231 13.6
2009-09-30 08:48:49 51°8.838 2°35.845 237.4 2.6 234 13.1
2009-09-30 08:49:49 51°8.815 2°35.786 243.8 2.6 237 13.1
2009-09-30 08:50:49 51°8.795 2°35.724 245.2 2.7 244 13
2009-09-30 08:51:49 51°8.772 2°35.662 242.3 2.8 238 12.8
2009-09-30 08:52:49 51°8.748 2°35.599 243.3 2.8 236 12.8
2009-09-30 08:53:49 51°8.726 2°35.536 244 2.7 243 12.7
2009-09-30 08:54:49 51°8.703 2°35.472 242.1 2.8 245 12.5
2009-09-30 08:55:49 51°8.679 2°35.409 244.2 2.7 244 12.5
2009-09-30 08:56:49 51°8.656 2°35.346 241.5 2.8 237 12.3
2009-09-30 08:57:49 51°8.633 2°35.283 243.5 2.8 243 12.1
2009-09-30 08:58:49 51°8.614 2°35.217 253.6 2.7 255 12.2
2009-09-30 08:59:49 51°8.617 2°35.148 276 2.6 283 12.8
2009-09-30 09:00:49 51°8.638 2°35.081 290.5 3 303 14.1
2009-09-30 09:01:49 51°8.682 2°35.032 325 3.6 344 16.1
2009-09-30 09:02:49 51°8.744 2°35.044 7.3 3.5 23 17.6
2009-09-30 09:03:49 51°8.784 2°35.09 24.3 2.7 42 18
2009-09-30 09:04:49 51°8.813 2°35.135 20.4 2.2 48 18.1
2009-09-30 09:05:49 51°8.835 2°35.175 11.7 1.9 52 18.3
2009-09-30 09:06:49 51°8.853 2°35.212 6.8 1.6 53 18
2009-09-30 09:07:49 51°8.868 2°35.248 4.6 1.7 62 18.1
2009-09-30 09:08:49 51°8.88 2°35.285 4.8 1.5 63 18.1
2009-09-30 09:09:49 51°8.89 2°35.322 6.9 1.5 69 18
2009-09-30 09:10:49 51°8.899 2°35.36 14.4 1.7 76 18.1
2009-09-30 09:11:49 51°8.912 2°35.401 20.1 2.4 44 18
2009-09-30 09:12:49 51°8.954 2°35.421 324.5 2.6 351 18.3
2009-09-30 09:13:49 51°8.968 2°35.376 242.2 2.8 238 18.6
2009-09-30 09:14:49 51°8.916 2°35.244 243.2 8.2 244 18.3
2009-09-30 09:15:49 51°8.848 2°35.019 245.7 9.7 245 18.4
2009-09-30 09:16:49 51°8.779 2°34.783 245.4 9.8 246 18.6
2009-09-30 09:17:49 51°8.709 2°34.547 245.3 9.8 246 19
2009-09-30 09:18:49 51°8.638 2°34.309 245.8 9.9 244 18.9
2009-09-30 09:19:49 51°8.568 2°34.071 245.1 10 244 19.2
2009-09-30 09:20:49 51°8.498 2°33.833 244.7 10 241 18.9
2009-09-30 09:21:49 51°8.425 2°33.599 242.9 9.9 242 18.9
2009-09-30 09:22:49 51°8.338 2°33.375 238.5 10 237 18.6
2009-09-30 09:23:49 51°8.249 2°33.154 238.6 10 238 18.7
2009-09-30 09:24:49 51°8.158 2°32.932 238.5 10 238 18.5
2009-09-30 09:25:49 51°8.068 2°32.709 239.1 10 238 18.7
2009-09-30 09:26:49 51°7.98 2°32.482 238.5 10.1 239 18.4
2009-09-30 09:27:49 51°7.895 2°32.252 244 10 242 18.3
2009-09-30 09:28:49 51°7.845 2°32 265.7 10 270 19.3
2009-09-30 09:29:49 51°7.851 2°31.733 276 10.1 281 20.9
2009-09-30 09:30:49 51°7.978 2°31.549 326.5 11.2 334 21.7
2009-09-30 09:31:49 51°8.166 2°31.484 349.8 11.6 354 20.6
2009-09-30 09:32:49 51°8.342 2°31.587 37.6 11.7 34 19.4
2009-09-30 09:33:49 51°8.498 2°31.785 38.9 12.1 38 19.1
2009-09-30 09:34:49 51°8.652 2°31.991 38.9 12 39 18.5
2009-09-30 09:35:49 51°8.81 2°32.189 37.8 12 37 16.8
2009-09-30 09:36:49 51°8.956 2°32.404 49.1 12.1 51 15
2009-09-30 09:37:49 51°9.065 2°32.669 64 12.1 64 15.7
2009-09-30 09:38:49 51°9.153 2°32.962 67.4 12.6 64 17
2009-09-30 09:39:49 51°9.244 2°33.261 65.1 12.6 64 17.8
2009-09-30 09:40:49 51°9.341 2°33.559 66.1 12.8 63 18
2009-09-30 09:41:49 51°9.439 2°33.864 65.3 12.9 62 18.2
2009-09-30 09:42:49 51°9.556 2°34.146 52.7 12.8 52 17.8
2009-09-30 09:43:49 51°9.692 2°34.412 50.9 12.8 50 16.2
2009-09-30 09:44:49 51°9.823 2°34.677 52 12.7 53 14.9
2009-09-30 09:45:49 51°9.932 2°34.961 64.7 12.5 64 13.9
2009-09-30 09:46:49 51°10.002 2°35.274 77 12.5 77 14.6
2009-09-30 09:47:49 51°10.046 2°35.601 81.6 12.8 79 17.1
2009-09-30 09:48:49 51°10.09 2°35.931 81.4 12.8 78 17.8
2009-09-30 09:49:49 51°10.135 2°36.265 81 12.9 78 18.8
2009-09-30 09:50:49 51°10.179 2°36.6 79.9 12.9 77 19.7
2009-09-30 09:51:49 51°10.224 2°36.935 80.1 13 78 19.9
2009-09-30 09:52:49 51°10.27 2°37.27 80.1 12.9 79 20
2009-09-30 09:53:49 51°10.317 2°37.604 79.4 12.9 78 20
2009-09-30 09:54:49 51°10.365 2°37.935 78.6 12.8 77 19.9
2009-09-30 09:55:49 51°10.411 2°38.265 79.4 12.8 77 19.4
2009-09-30 09:56:49 51°10.458 2°38.597 79.9 12.9 77 18.6
2009-09-30 09:57:49 51°10.506 2°38.929 79.2 12.8 78 18.3
2009-09-30 09:58:49 51°10.556 2°39.26 79.5 12.8 76 17.4
2009-09-30 09:59:49 51°10.599 2°39.553 79.2 10.6 76 17
2009-09-30 10:00:49 51°10.65 2°39.827 64.7 10.9 63 16.8
2009-09-30 10:01:49 51°10.76 2°40.055 41.5 10.8 41 16.1
2009-09-30 10:02:49 51°10.914 2°40.203 26.8 10.8 30 16.2
2009-09-30 10:03:49 51°11.085 2°40.349 22.9 12.4 26 16.8
2009-09-30 10:04:49 51°11.274 2°40.463 11.2 11.7 14 17.3
2009-09-30 10:05:49 51°11.4 2°40.507 10.5 5.9 24 17.8
2009-09-30 10:06:49 51°11.461 2°40.605 56.8 5.1 57 17.8
2009-09-30 10:07:49 51°11.492 2°40.731 84.7 5 77 17.6
2009-09-30 10:08:49 51°11.493 2°40.857 111.5 4.6 98 17.6
2009-09-30 10:09:49 51°11.471 2°40.96 142.7 3.7 121 17
2009-09-30 10:10:49 51°11.433 2°41.022 174.7 2.9 147 16.3
2009-09-30 10:11:49 51°11.39 2°41.053 187.3 2.6 161 15.8
2009-09-30 10:12:49 51°11.347 2°41.07 195.2 2.7 174 15.3
2009-09-30 10:13:49 51°11.296 2°41.077 190.2 3.4 168 15.4
2009-09-30 10:14:49 51°11.239 2°41.1 187 3.4 165 14.8
2009-09-30 10:15:49 51°11.19 2°41.105 210.3 2.5 192 14.5
2009-09-30 10:16:49 51°11.16 2°41.072 239.7 2.1 232 14.6
2009-09-30 10:17:49 51°11.13 2°41.012 234.9 3.3 229 14.8
2009-09-30 10:18:49 51°11.097 2°40.95 234.6 2.8 232 14.7
2009-09-30 10:19:49 51°11.068 2°40.901 234 2.5 223 14.8
2009-09-30 10:20:49 51°11.041 2°40.855 234.1 2.3 229 15
2009-09-30 10:21:49 51°11.011 2°40.806 233.8 2.7 228 15.1
2009-09-30 10:22:49 51°10.98 2°40.753 234.1 2.7 226 15.1
2009-09-30 10:23:49 51°10.948 2°40.7 233.7 2.8 225 15.1
2009-09-30 10:24:49 51°10.911 2°40.658 214.6 2.9 200 15.2
2009-09-30 10:25:49 51°10.858 2°40.659 187.5 3.5 168 15.1
2009-09-30 10:26:49 51°10.803 2°40.687 181.1 3.3 160 15.1
2009-09-30 10:27:49 51°10.755 2°40.711 190.7 2.6 170 15
2009-09-30 10:28:49 51°10.713 2°40.716 200.7 2.4 177 14.9
2009-09-30 10:29:49 51°10.673 2°40.72 199.5 2.6 173 15.1
2009-09-30 10:30:49 51°10.631 2°40.718 208.1 2.5 186 14.9
2009-09-30 10:31:49 51°10.592 2°40.702 219.2 2.3 205 14.9
2009-09-30 10:32:49 51°10.563 2°40.668 241.1 2.2 235 14.7
2009-09-30 10:33:49 51°10.554 2°40.637 254.8 0.7 248 14.9
2009-09-30 10:34:49 51°10.554 2°40.628 260.5 0.2 321 14.9
2009-09-30 10:35:49 51°10.557 2°40.631 261.9 0.4 48 14.7
2009-09-30 10:36:49 51°10.559 2°40.644 260.9 0.6 84 15
2009-09-30 10:37:49 51°10.563 2°40.662 259.9 0.8 72 14.8
2009-09-30 10:38:49 51°10.566 2°40.683 259.9 0.9 65 14.8
2009-09-30 10:39:49 51°10.57 2°40.707 259.5 0.8 69 14.7
2009-09-30 10:40:49 51°10.571 2°40.684 265.7 2.4 274 14.8
2009-09-30 10:41:49 51°10.564 2°40.55 254.9 3.8 255 15
2009-09-30 10:42:49 51°10.542 2°40.501 227.8 1.6 209 15
2009-09-30 10:43:49 51°10.521 2°40.497 213.1 1.1 177 15
2009-09-30 10:44:49 51°10.493 2°40.485 228.1 3.1 223 15
2009-09-30 10:45:49 51°10.495 2°40.355 285.2 6.8 287 15.1
2009-09-30 10:46:49 51°10.495 2°40.123 266.8 9.8 269 15.5
2009-09-30 10:47:49 51°10.489 2°39.857 264.8 10.1 265 15.9
2009-09-30 10:48:49 51°10.472 2°39.588 262.5 10.3 264 16.5
2009-09-30 10:49:49 51°10.45 2°39.323 261.4 10.1 263 16.9
2009-09-30 10:50:49 51°10.431 2°39.057 261.8 10 263 17.2
2009-09-30 10:51:49 51°10.413 2°38.791 262.1 10.2 266 17.9
2009-09-30 10:52:49 51°10.396 2°38.523 263.7 10.2 264 18.2
2009-09-30 10:53:49 51°10.377 2°38.253 261.4 10.2 263 18.7
2009-09-30 10:54:49 51°10.359 2°37.982 262.3 10.2 264 19.4
2009-09-30 10:55:49 51°10.353 2°37.71 268.6 10.3 270 19.7
2009-09-30 10:56:49 51°10.359 2°37.44 269.7 10 273 19.7
2009-09-30 10:57:49 51°10.367 2°37.175 269.9 10 273 18.7
2009-09-30 10:58:49 51°10.416 2°36.917 286.8 10.3 289 15.1
2009-09-30 10:59:49 51°10.493 2°36.67 301.7 10.6 307 10.7
2009-09-30 11:00:49 51°10.635 2°36.5 333.2 11.2 339 12.2
2009-09-30 11:01:49 51°10.824 2°36.503 12 11.8 15 13.5
2009-09-30 11:02:49 51°10.999 2°36.654 35.2 12.2 36 13.9
2009-09-30 11:03:49 51°11.163 2°36.847 34.7 12.3 36 14.5
2009-09-30 11:04:49 51°11.331 2°37.034 34.5 12.3 35 14.9
2009-09-30 11:05:49 51°11.503 2°37.21 30 12.2 31 15.4
2009-09-30 11:06:49 51°11.679 2°37.377 30.6 12.3 32 15.3
2009-09-30 11:07:49 51°11.855 2°37.541 29.1 12 27 15.4
2009-09-30 11:08:49 51°12.046 2°37.571 354.3 11.6 355 14.5
2009-09-30 11:09:49 51°12.238 2°37.532 348.8 11.7 352 13.9
2009-09-30 11:10:49 51°12.43 2°37.489 349.8 11.6 352 13.3
2009-09-30 11:11:49 51°12.621 2°37.445 349.3 11.6 351 13.2
2009-09-30 11:12:49 51°12.811 2°37.401 349.5 11.6 353 12.8
2009-09-30 11:13:49 51°13.001 2°37.356 348 11.5 350 11.9
2009-09-30 11:14:49 51°13.19 2°37.315 350.3 11.5 353 11.1
2009-09-30 11:15:49 51°13.38 2°37.272 349.6 11.4 353 10.5
2009-09-30 11:16:49 51°13.569 2°37.231 349.4 11.6 351 12
2009-09-30 11:17:49 51°13.761 2°37.189 348.9 11.6 353 20.3
2009-09-30 11:18:49 51°13.949 2°37.137 335.8 11 335 21.8
2009-09-30 11:19:49 51°14.04 2°36.93 275.5 9.7 273 18.5
2009-09-30 11:20:49 51°13.969 2°36.697 236.3 10.4 239 18.7
2009-09-30 11:21:49 51°13.861 2°36.48 231.2 10.4 230 19.8
2009-09-30 11:22:49 51°13.752 2°36.265 232.9 10.4 231 20.3
2009-09-30 11:23:49 51°13.647 2°36.047 232.9 10.3 230 20.5
2009-09-30 11:24:49 51°13.543 2°35.83 233.4 10.3 233 18.1
2009-09-30 11:25:49 51°13.44 2°35.614 234.1 10.2 234 19.2
2009-09-30 11:26:49 51°13.346 2°35.39 239 10.3 236 18.8
2009-09-30 11:27:49 51°13.263 2°35.155 240.7 10.2 240 18.5
2009-09-30 11:28:49 51°13.181 2°34.918 241.2 10.3 242 18.9
2009-09-30 11:29:52 51°13.096 2°34.666 241.2 10.3 241 18.5
2009-09-30 11:30:52 51°13.012 2°34.427 240.3 10.4 240 18.7
2009-09-30 11:31:51 51°12.929 2°34.192 240.3 10.4 241 18.6
2009-09-30 11:32:52 51°12.841 2°33.951 238.9 10.3 237 17.9
2009-09-30 11:33:51 51°12.755 2°33.72 239.1 10.4 240 17.3
2009-09-30 11:34:52 51°12.668 2°33.478 239.6 10.5 241 16.7
2009-09-30 11:35:51 51°12.591 2°33.24 249.6 10.2 252 16.8
2009-09-30 11:36:51 51°12.599 2°32.973 290.7 10.5 297 17.2
2009-09-30 11:37:51 51°12.75 2°32.826 340.8 11.3 339 20.5
2009-09-30 11:38:52 51°12.939 2°32.744 351 11.6 358 23.7
2009-09-30 11:39:52 51°13.125 2°32.848 28.4 12.2 28 25
2009-09-30 11:40:52 51°13.302 2°33.02 34.3 12.5 35 24.6
2009-09-30 11:41:52 51°13.468 2°33.227 40.7 12.8 40 24.6
2009-09-30 11:42:51 51°13.632 2°33.43 38.9 12.6 37 23.9
2009-09-30 11:43:52 51°13.802 2°33.64 38.6 12.6 38 23.6
2009-09-30 11:44:51 51°13.964 2°33.844 40 12.5 39 23.8
2009-09-30 11:45:52 51°14.13 2°34.051 39.6 12.5 38 23.2
2009-09-30 11:46:52 51°14.292 2°34.253 39.3 12.3 39 23.4
2009-09-30 11:47:52 51°14.453 2°34.456 39.5 12.3 38 24.1
2009-09-30 11:48:52 51°14.616 2°34.659 39.8 12.5 38 23.9
2009-09-30 11:49:51 51°14.777 2°34.862 38.6 12.5 38 24.2
2009-09-30 11:50:51 51°14.943 2°35.067 39 12.6 38 24.2
2009-09-30 11:51:51 51°15.108 2°35.274 39.6 12.6 37 25.3
2009-09-30 11:52:52 51°15.272 2°35.486 39.3 12.4 40 25.9
2009-09-30 11:53:51 51°15.431 2°35.688 39.4 12.5 39 26.5
2009-09-30 11:54:52 51°15.596 2°35.897 37.9 12.5 38 26.5
2009-09-30 11:55:52 51°15.76 2°36.101 38.5 12.6 38 27.1
2009-09-30 11:56:51 51°15.919 2°36.309 38.6 12.6 38 27.4
2009-09-30 11:57:51 51°16.081 2°36.522 39.7 12.6 39 27.9
2009-09-30 11:58:52 51°16.246 2°36.739 40.1 12.6 40 28.3
2009-09-30 11:59:52 51°16.408 2°36.95 39.8 12.7 40 27.8
2009-09-30 12:00:51 51°16.569 2°37.158 39.2 12.6 39 27.3
2009-09-30 12:01:52 51°16.735 2°37.376 40 12.7 40 27.6
2009-09-30 12:02:51 51°16.9 2°37.581 37.5 12.8 38 28.5
2009-09-30 12:03:51 51°17.063 2°37.798 40 12.8 39 27.3
2009-09-30 12:04:52 51°17.229 2°38.017 39.5 12.7 39 27.7
2009-09-30 12:05:52 51°17.392 2°38.232 39.6 12.8 39 27.8
2009-09-30 12:06:52 51°17.556 2°38.446 39.6 12.7 40 27.9
2009-09-30 12:07:52 51°17.721 2°38.66 39 12.8 39 27.9
2009-09-30 12:08:52 51°17.887 2°38.87 39.2 12.7 40 27.9
2009-09-30 12:09:51 51°18.049 2°39.078 39.7 12.7 39 27.9
2009-09-30 12:10:51 51°18.212 2°39.294 39.8 12.7 39 27.1
2009-09-30 12:11:51 51°18.376 2°39.507 39.4 12.7 39 26.4
2009-09-30 12:12:51 51°18.549 2°39.677 17.3 12.2 19 26.1
2009-09-30 12:13:52 51°18.746 2°39.687 344.9 11.4 347 25.5
2009-09-30 12:14:52 51°18.857 2°39.485 282.5 9.8 283 25.8
2009-09-30 12:15:52 51°18.819 2°39.233 241.8 10.1 244 26.3
2009-09-30 12:16:52 51°18.727 2°39 234.3 10.4 234 27.1
2009-09-30 12:17:52 51°18.628 2°38.773 235.2 10.6 238 27.5
2009-09-30 12:18:52 51°18.526 2°38.546 235 10.5 233 27.3
2009-09-30 12:19:52 51°18.425 2°38.318 234.5 10.5 235 27.3
2009-09-30 12:20:52 51°18.339 2°38.075 240.8 10.5 242 26.8
2009-09-30 12:21:52 51°18.256 2°37.827 241.9 10.6 242 26.4
2009-09-30 12:22:52 51°18.16 2°37.594 234.1 10.5 232 23.7
2009-09-30 12:23:51 51°18.052 2°37.375 231.4 10.8 231 24.1
2009-09-30 12:24:52 51°17.939 2°37.149 232.1 10.8 232 23.6
2009-09-30 12:25:52 51°17.828 2°36.927 232.3 10.5 232 22.4
2009-09-30 12:26:52 51°17.712 2°36.713 226.5 10.7 228 21.2
2009-09-30 12:27:52 51°17.584 2°36.516 221.9 10.6 222 20.8
2009-09-30 12:28:52 51°17.442 2°36.341 218.4 10.8 218 20.6
2009-09-30 12:29:51 51°17.302 2°36.171 218.7 10.8 218 21
2009-09-30 12:30:51 51°17.161 2°35.994 220 10.8 221 21.7
2009-09-30 12:31:47 51°17.03 2°35.827 220.3 10.8 218 21.5
2009-09-30 12:32:57 51°16.866 2°35.619 220 11 219 21.9
2009-09-30 12:33:58 51°16.722 2°35.436 219.9 10.9 220 21.3
2009-09-30 12:34:57 51°16.584 2°35.258 220 10.8 218 21.8
2009-09-30 12:35:57 51°16.442 2°35.079 220.6 10.8 218 22.1
2009-09-30 12:36:57 51°16.305 2°34.906 220.8 8.4 219 22.1
2009-09-30 12:37:57 51°16.216 2°34.815 206 6.2 199 24
2009-09-30 12:38:57 51°16.124 2°34.789 188.8 4.7 185 24.5
2009-09-30 12:39:57 51°16.061 2°34.789 187.9 3.2 180 26.1
2009-09-30 12:40:57 51°16.016 2°34.787 196.6 2.4 185 25.9
2009-09-30 12:41:57 51°15.975 2°34.772 208.2 2.7 201 26.1
2009-09-30 12:42:57 51°15.935 2°34.734 221.1 2.8 218 25.6
2009-09-30 12:43:57 51°15.905 2°34.679 238.1 2.7 238 25.6
2009-09-30 12:44:57 51°15.889 2°34.611 254.6 2.8 265 25.1
2009-09-30 12:45:57 51°15.885 2°34.536 262.8 2.9 267 25
2009-09-30 12:46:57 51°15.879 2°34.461 254.2 2.9 258 24.3
2009-09-30 12:47:57 51°15.855 2°34.394 226.8 3 225 24.2
2009-09-30 12:48:57 51°15.812 2°34.343 216.9 3.4 215 23.9
2009-09-30 12:49:58 51°15.765 2°34.291 217.7 3.3 214 24.3
2009-09-30 12:50:57 51°15.721 2°34.242 216.6 3.3 214 23.7
2009-09-30 12:51:57 51°15.675 2°34.194 216.9 3.3 215 24.1
2009-09-30 12:52:57 51°15.631 2°34.147 217 3.1 216 24.5
2009-09-30 12:53:58 51°15.593 2°34.1 222.2 2.7 220 24.6
2009-09-30 12:54:57 51°15.559 2°34.055 223.2 2.7 221 24.4
2009-09-30 12:55:58 51°15.524 2°34.009 223.3 2.7 221 23.9
2009-09-30 12:56:58 51°15.489 2°33.962 222.2 2.8 220 24.1
2009-09-30 12:57:58 51°15.455 2°33.915 222.4 2.7 222 24
2009-09-30 12:58:58 51°15.42 2°33.868 222.8 2.8 223 23.4
2009-09-30 12:59:57 51°15.385 2°33.822 221.7 2.7 219 23.8
2009-09-30 13:00:58 51°15.35 2°33.774 223 2.7 221 23.8
2009-09-30 13:01:57 51°15.318 2°33.725 228.3 2.7 231 23.7
2009-09-30 13:02:58 51°15.293 2°33.665 242 2.7 245 22.8
2009-09-30 13:03:58 51°15.275 2°33.601 248.2 2.6 249 22.9
2009-09-30 13:04:58 51°15.263 2°33.531 260.1 2.6 263 21.9
2009-09-30 13:05:58 51°15.271 2°33.462 290.3 2.7 297 21.1
2009-09-30 13:06:57 51°15.305 2°33.419 336.9 2.8 342 18.6
2009-09-30 13:07:58 51°15.341 2°33.419 2.3 1.8 6 16.7
2009-09-30 13:08:57 51°15.367 2°33.425 4.5 1.5 12 15.9
2009-09-30 13:09:57 51°15.402 2°33.47 66.6 3.6 69 16.7
2009-09-30 13:10:58 51°15.378 2°33.552 152.1 3.6 153 19.4
2009-09-30 13:11:57 51°15.326 2°33.511 239 4.4 237 20.8
2009-09-30 13:12:58 51°15.257 2°33.438 210.3 6.3 215 20.7
2009-09-30 13:13:58 51°15.157 2°33.293 220.2 8.8 222 20.8
2009-09-30 13:14:58 51°15.063 2°33.11 239.6 9 243 19.5
2009-09-30 13:15:57 51°15.011 2°32.889 251.2 9.1 254 14.8
2009-09-30 13:16:58 51°14.952 2°32.723 220.7 4.8 220 13.5
2009-09-30 13:17:57 51°14.901 2°32.688 187.3 2.7 190 13.9
2009-09-30 13:18:57 51°14.849 2°32.679 190.5 3 192 15.3
2009-09-30 13:19:57 51°14.804 2°32.652 210.8 2.8 210 15.8
2009-09-30 13:20:57 51°14.77 2°32.604 227.3 2.8 227 15.7
2009-09-30 13:21:58 51°14.738 2°32.551 224.8 2.7 221 15.3
2009-09-30 13:22:57 51°14.708 2°32.498 234.3 2.7 233 14.9
2009-09-30 13:23:58 51°14.688 2°32.436 249.2 2.7 247 14.5
2009-09-30 13:24:57 51°14.673 2°32.366 251.6 2.9 252 13.1
2009-09-30 13:25:58 51°14.655 2°32.291 243 3 245 12.3
2009-09-30 13:26:58 51°14.63 2°32.221 238.8 3.1 242 11.7
2009-09-30 13:27:58 51°14.598 2°32.161 214.9 2.9 215 11.4
2009-09-30 13:28:58 51°14.556 2°32.115 215.8 3 215 11.3
2009-09-30 13:29:58 51°14.518 2°32.063 221.1 3 225 11.4
2009-09-30 13:30:58 51°14.48 2°32.009 220.4 3 222 11.1
2009-09-30 13:31:57 51°14.441 2°31.955 219.7 3.2 216 11.1
2009-09-30 13:32:58 51°14.402 2°31.9 219.2 3 219 10.9
2009-09-30 13:33:57 51°14.363 2°31.847 219.3 3.1 223 11
2009-09-30 13:34:57 51°14.323 2°31.796 212.8 3 214 10.9
2009-09-30 13:35:57 51°14.277 2°31.775 178.9 3 182 11.6
2009-09-30 13:36:57 51°14.227 2°31.784 170.2 3.1 177 12.5
2009-09-30 13:37:58 51°14.177 2°31.783 187 2.9 185 13.8
2009-09-30 13:38:58 51°14.133 2°31.769 191.7 2.6 193 14.7
2009-09-30 13:39:58 51°14.092 2°31.746 201.8 2.6 203 15.4
2009-09-30 13:40:58 51°14.055 2°31.714 212.8 2.4 212 15.2
2009-09-30 13:41:58 51°14.021 2°31.672 223.2 2.5 216 15.2
2009-09-30 13:42:57 51°13.997 2°31.638 224.9 1.7 219 15.5
2009-09-30 13:43:58 51°13.978 2°31.613 223.2 1.3 216 15.3
2009-09-30 13:44:57 51°13.962 2°31.596 221.9 1.6 214 14.8
2009-09-30 13:45:58 51°13.906 2°31.522 220 7.4 220 14.9
2009-09-30 13:46:58 51°13.785 2°31.354 220.1 10.5 221 13.9
2009-09-30 13:47:58 51°13.653 2°31.168 220.8 10.7 223 13
2009-09-30 13:48:58 51°13.522 2°30.978 222.2 10.7 224 12
2009-09-30 13:49:57 51°13.393 2°30.791 220.1 10.4 221 11.5
2009-09-30 13:50:58 51°13.259 2°30.597 220 10.7 222 11.3
2009-09-30 13:51:57 51°13.123 2°30.404 219.2 11.2 219 10.9
2009-09-30 13:52:58 51°12.973 2°30.215 213.8 11 213 10.9
2009-09-30 13:53:57 51°12.813 2°30.065 204.5 11.4 208 11.8
2009-09-30 13:54:58 51°12.638 2°29.935 202.9 11.5 207 13.7
2009-09-30 13:55:58 51°12.462 2°29.813 202.9 11.4 201 16.7
2009-09-30 13:56:58 51°12.294 2°29.67 213.8 11.5 216 18.3
2009-09-30 13:57:58 51°12.145 2°29.483 219.7 11.5 221 17.9
2009-09-30 13:58:57 51°12.001 2°29.294 218.8 11.4 219 17.9
2009-09-30 13:59:58 51°11.852 2°29.1 220 11.4 221 17.5
2009-09-30 14:00:57 51°11.707 2°28.911 219.1 11.5 218 17.6
2009-09-30 14:01:58 51°11.567 2°28.697 230.2 11.5 230 20.9
2009-09-30 14:02:58 51°11.476 2°28.434 251.1 11.5 249 22.1
2009-09-30 14:03:58 51°11.428 2°28.137 256.7 11.7 257 21.7
2009-09-30 14:04:58 51°11.399 2°27.833 265.9 11.6 265 22.8
2009-09-30 14:05:57 51°11.387 2°27.53 267.8 11.6 266 21.1
2009-09-30 14:06:58 51°11.41 2°27.223 285.3 11.5 284 17.8
2009-09-30 14:07:57 51°11.462 2°26.931 287.6 11.6 286 14.4
2009-09-30 14:08:57 51°11.531 2°26.644 296.4 11.6 294 10.7
2009-09-30 14:09:58 51°11.634 2°26.384 314.5 11.5 315 9.3
2009-09-30 14:10:58 51°11.801 2°26.264 354.2 11.3 353 16.7
2009-09-30 14:11:58 51°11.976 2°26.328 31.3 11.1 30 17.6
2009-09-30 14:12:57 51°12.114 2°26.518 46.3 11.2 45 16.9
2009-09-30 14:13:58 51°12.252 2°26.723 43.6 11.3 42 16.8
2009-09-30 14:14:57 51°12.39 2°26.918 44.4 11.2 43 17.8
2009-09-30 14:15:58 51°12.53 2°27.12 44.1 11.2 41 19.2
2009-09-30 14:16:58 51°12.668 2°27.32 44.3 11.2 42 20.6
2009-09-30 14:17:58 51°12.806 2°27.517 44 11.1 41 20.9
2009-09-30 14:18:58 51°12.945 2°27.714 44.4 11.2 42 20.5
2009-09-30 14:19:58 51°13.084 2°27.907 42.9 11.1 40 21.4
2009-09-30 14:20:58 51°13.222 2°28.103 44.7 11.1 42 21.2
2009-09-30 14:21:58 51°13.358 2°28.302 44.4 11.2 43 20.5
2009-09-30 14:22:58 51°13.496 2°28.5 44 11.1 42 19.7
2009-09-30 14:23:57 51°13.631 2°28.691 43.3 11 42 18.9
2009-09-30 14:24:58 51°13.772 2°28.889 44.4 11 41 18.1
2009-09-30 14:25:57 51°13.906 2°29.082 44.5 11.1 42 17.2
2009-09-30 14:26:58 51°14.043 2°29.279 44.7 10.9 41 16.4
2009-09-30 14:27:58 51°14.181 2°29.471 43.9 11 42 16.5
2009-09-30 14:28:58 51°14.317 2°29.664 44.5 10.9 41 15.7
2009-09-30 14:29:58 51°14.454 2°29.856 44 10.9 41 14.9
2009-09-30 14:30:58 51°14.591 2°30.048 44.6 10.9 41 13.7
2009-09-30 14:31:58 51°14.73 2°30.235 41.4 11 39 13.1
2009-09-30 14:32:58 51°14.874 2°30.412 41.2 11 38 14.5
2009-09-30 14:33:58 51°15.019 2°30.592 41.5 11 38 17.5
2009-09-30 14:34:58 51°15.164 2°30.772 40.4 11 38 17.4
2009-09-30 14:35:59 51°15.311 2°30.956 41.5 11.1 38 19.4
2009-09-30 14:36:59 51°15.451 2°31.143 43.8 11 41 20.6
2009-09-30 14:37:59 51°15.585 2°31.342 46 11 43 22.3
2009-09-30 14:38:59 51°15.719 2°31.539 45.7 10.9 42 23.5
2009-09-30 14:39:59 51°15.855 2°31.735 45 11 44 25.3
2009-09-30 14:40:59 51°15.992 2°31.928 44.7 11 42 25.9
2009-09-30 14:41:59 51°16.127 2°32.124 44.7 11 42 25.7
2009-09-30 14:42:59 51°16.264 2°32.316 44.1 11 42 25.2
2009-09-30 14:43:59 51°16.4 2°32.509 44.3 10.9 41 25.5
2009-09-30 14:44:59 51°16.536 2°32.699 44.5 10.8 41 25.3
2009-09-30 14:45:59 51°16.674 2°32.888 43 10.9 39 24.8
2009-09-30 14:46:59 51°16.811 2°33.081 43.5 11.1 40 24.3
2009-09-30 14:47:59 51°16.946 2°33.28 45 11.1 42 23.5
2009-09-30 14:48:59 51°17.083 2°33.479 43.5 11.2 41 23.1
2009-09-30 14:49:59 51°17.22 2°33.678 44.4 11.1 42 22
2009-09-30 14:50:59 51°17.356 2°33.88 46.5 11.1 47 23.5
2009-09-30 14:51:59 51°17.468 2°34.114 57.4 11.1 55 23
2009-09-30 14:52:59 51°17.569 2°34.359 59 11.1 57 23.1
2009-09-30 14:53:59 51°17.675 2°34.597 54.8 10.9 52 21.6
2009-09-30 14:54:59 51°17.818 2°34.766 28.5 10.9 25 19.3
2009-09-30 14:55:59 51°17.977 2°34.904 35.3 10.9 36 24.9
2009-09-30 14:56:59 51°18.089 2°35.119 62.2 10.7 61 23.5
2009-09-30 14:57:59 51°18.154 2°35.384 72.9 10.8 73 19.8
2009-09-30 14:58:59 51°18.214 2°35.654 72.3 10.8 71 22.2
2009-09-30 14:59:59 51°18.275 2°35.924 71.4 10.9 71 21
2009-09-30 15:00:59 51°18.339 2°36.191 70.2 10.8 69 18.8
2009-09-30 15:01:59 51°18.408 2°36.455 70.4 10.8 69 19.2
2009-09-30 15:02:59 51°18.47 2°36.721 75.4 10.5 76 15.7
2009-09-30 15:03:59 51°18.484 2°36.998 94.9 10.6 97 18.1
2009-09-30 15:04:59 51°18.424 2°37.265 114.8 10.8 115 20.5
2009-09-30 15:05:59 51°18.35 2°37.531 110.4 11.1 108 22.7
2009-09-30 15:06:59 51°18.291 2°37.808 106.3 11.1 108 24.2
2009-09-30 15:07:59 51°18.24 2°38.093 109.1 11.2 108 25.7
2009-09-30 15:08:59 51°18.179 2°38.372 111.1 11.2 110 25.7
2009-09-30 15:09:59 51°18.116 2°38.651 110.8 11.1 108 25.7
2009-09-30 15:10:59 51°18.051 2°38.927 110.4 11.1 111 25.6
2009-09-30 15:11:59 51°17.987 2°39.204 109.9 11.1 109 25.8
2009-09-30 15:12:59 51°17.922 2°39.48 110.2 11.1 110 24.4
2009-09-30 15:13:59 51°17.859 2°39.752 109 10.8 109 14.8
2009-09-30 15:14:59 51°17.802 2°40.021 107.7 10.7 109 16.1
2009-09-30 15:15:59 51°17.746 2°40.289 108.4 10.6 109 14.8
2009-09-30 15:16:59 51°17.683 2°40.556 111 10.8 109 16.2
2009-09-30 15:17:59 51°17.627 2°40.829 105.3 10.9 105 20
2009-09-30 15:18:59 51°17.576 2°41.108 106.3 10.9 108 21.6
2009-09-30 15:19:59 51°17.512 2°41.381 112.4 11.1 115 22.9
2009-09-30 15:20:59 51°17.441 2°41.652 110.8 11 111 23.3
2009-09-30 15:21:59 51°17.367 2°41.924 112.3 11.1 115 22.7
2009-09-30 15:22:59 51°17.293 2°42.193 112.5 11.1 115 21.2
2009-09-30 15:23:59 51°17.223 2°42.461 110.8 10.7 109 12.8
2009-09-30 15:24:59 51°17.154 2°42.716 112.8 10.2 117 9.7
2009-09-30 15:25:59 51°17.087 2°42.971 112.3 10.6 112 10.5
2009-09-30 15:26:59 51°17.017 2°43.234 111.6 10.9 114 12.8
2009-09-30 15:27:59 51°16.946 2°43.498 111.1 10.9 115 13.2
2009-09-30 15:28:59 51°16.875 2°43.764 110.4 11 111 14.2
2009-09-30 15:29:59 51°16.805 2°44.032 110.2 10.9 111 14
2009-09-30 15:30:59 51°16.736 2°44.303 110.9 11.1 114 13.9
2009-09-30 15:31:59 51°16.665 2°44.569 111.1 11 113 11.8
2009-09-30 15:32:59 51°16.592 2°44.837 111.4 10.9 116 11.2
2009-09-30 15:33:59 51°16.521 2°45.104 111.6 11 112 10.7
2009-09-30 15:34:59 51°16.449 2°45.373 111.1 11.1 113 10.4
2009-09-30 15:35:59 51°16.377 2°45.64 111.9 11 118 9.8
2009-09-30 15:36:59 51°16.308 2°45.909 109.5 10.9 110 9.5
2009-09-30 15:37:59 51°16.237 2°46.175 110.8 10.9 115 9.5
2009-09-30 15:38:59 51°16.162 2°46.44 112 11.1 114 11.2
2009-09-30 15:39:59 51°16.087 2°46.704 111.5 10.8 115 13.3
2009-09-30 15:40:59 51°16.012 2°46.968 111.9 11 113 15.1
2009-09-30 15:41:59 51°15.936 2°47.23 111.9 10.8 111 15.7
2009-09-30 15:42:59 51°15.863 2°47.491 111.2 10.7 113 15.3
2009-09-30 15:43:59 51°15.788 2°47.75 110.9 10.8 115 13.8
2009-09-30 15:44:59 51°15.724 2°48.016 107.2 10.8 110 12
2009-09-30 15:45:59 51°15.665 2°48.284 106.6 10.6 108 10.5
2009-09-30 15:46:59 51°15.607 2°48.552 106.8 10.5 110 9.8
2009-09-30 15:47:59 51°15.544 2°48.816 107.5 10.7 112 9.7
2009-09-30 15:48:59 51°15.48 2°49.084 107.5 10.9 113 11.8
2009-09-30 15:49:59 51°15.417 2°49.351 106.2 10.7 109 12.1
2009-09-30 15:50:59 51°15.354 2°49.617 107.2 10.7 110 12
2009-09-30 15:51:59 51°15.291 2°49.885 107.5 10.8 109 12.2
2009-09-30 15:52:59 51°15.228 2°50.153 106.2 10.9 108 12.1
2009-09-30 15:53:59 51°15.164 2°50.421 108.8 10.9 112 12.1
2009-09-30 15:54:59 51°15.1 2°50.687 107.4 10.6 110 11.5
2009-09-30 15:55:59 51°15.035 2°50.952 107.1 10.8 109 11.2
2009-09-30 15:56:59 51°14.97 2°51.217 105.8 10.6 112 10.7
2009-09-30 15:57:59 51°14.907 2°51.48 105.3 10.5 114 10.1
2009-09-30 15:58:59 51°14.853 2°51.743 104 10.5 107 9.6
2009-09-30 15:59:59 51°14.801 2°52.008 104 10.5 103 9.2
2009-09-30 16:00:59 51°14.753 2°52.274 102.1 10.4 107 8.9
2009-09-30 16:01:59 51°14.705 2°52.544 103 10.8 105 8.5
2009-09-30 16:02:59 51°14.657 2°52.812 102 10.4 108 8.2
2009-09-30 16:03:59 51°14.609 2°53.073 101.1 8.7 105 8.1
2009-09-30 16:04:59 51°14.579 2°53.234 101.1 5.1 110 7.8
2009-09-30 16:05:59 51°14.547 2°53.385 102.1 7.6 108 5.6
2009-09-30 16:06:59 51°14.514 2°53.616 95.1 9.6 100 8.9
2009-09-30 16:07:59 51°14.487 2°53.87 97.1 9.9 102 9.3
2009-09-30 16:08:59 51°14.459 2°54.129 95.3 9.9 100 9
2009-09-30 16:09:59 51°14.431 2°54.392 96.3 10.2 99 9
2009-09-30 16:10:59 51°14.408 2°54.655 95.2 10.1 100 9.3
2009-09-30 16:11:59 51°14.377 2°54.918 100.2 10.4 102 8.2
2009-09-30 16:12:59 51°14.308 2°55.173 123.9 10.6 124 10
2009-09-30 16:13:59 51°14.182 2°55.359 146.1 10 147 10.2
2009-09-30 16:14:59 51°14.046 2°55.47 153.3 8 153 10.1
2009-09-30 16:15:59 51°13.946 2°55.545 155 6.1 154 10.5
2009-09-30 16:16:59 51°13.86 2°55.608 155.4 5.5 156 10.4
2009-09-30 16:17:59 51°13.784 2°55.682 142.3 5.1 142 10.3
2009-09-30 16:18:59 51°13.73 2°55.77 129 4.4 129 11.8
2009-09-30 16:19:59 51°13.689 2°55.86 123.5 4 123 8.2
2009-09-30 16:20:59 51°13.668 2°55.937 106.6 2.2 107 7.2